Time;durP1;ratioP1;P1;durP2;ratioP2;P2;SDS_P1;SDS_P2;PMS_P1;PMS_P2;Temp;Humidity;BMP_temperature;BMP_pressure;BME280_temperature;BME280_humidity;BME280_pressure;Samples;Min_cycle;Max_cycle;Signal;HPM_P1;HPM_P2
2022/12/13 00:01:15;;;;;;;14.20;8.48;;;;;;;;;;4991328;28;20084;-58
2022/12/13 00:03:43;;;;;;;15.45;8.63;;;;;;;;;;4991175;28;20797;-58
2022/12/13 00:06:11;;;;;;;15.27;8.18;;;;;;;;;;4989669;28;20500;-59
2022/12/13 00:08:39;;;;;;;14.70;8.68;;;;;;;;;;4991134;28;20058;-58
2022/12/13 00:11:08;;;;;;;13.93;8.00;;;;;;;;;;4991267;28;20042;-58
2022/12/13 00:13:35;;;;;;;16.77;9.02;;;;;;;;;;4991108;28;20389;-58
2022/12/13 00:16:04;;;;;;;14.60;8.63;;;;;;;;;;4990882;28;20393;-58
2022/12/13 00:18:32;;;;;;;16.20;8.82;;;;;;;;;;4990861;28;20046;-58
2022/12/13 00:21:03;;;;;;;14.68;9.15;;;;;;;;;;4991376;28;20369;-58
2022/12/13 00:23:31;;;;;;;16.27;9.27;;;;;;;;;;4990726;28;20058;-58
2022/12/13 00:26:05;;;;;;;14.43;8.93;;;;;;;;;;4990874;28;20126;-58
2022/12/13 00:28:33;;;;;;;17.37;8.90;;;;;;;;;;4990764;28;20054;-58
2022/12/13 00:31:01;;;;;;;14.82;8.65;;;;;;;;;;4989738;28;20337;-58
2022/12/13 00:33:48;;;;;;;15.57;8.77;;;;;;;;;;4991015;28;20050;-58
2022/12/13 00:36:16;;;;;;;15.57;9.15;;;;;;;;;;4990666;28;20061;-58
2022/12/13 00:38:44;;;;;;;16.33;8.52;;;;;;;;;;4990519;28;20121;-58
2022/12/13 00:41:12;;;;;;;15.10;8.70;;;;;;;;;;4990598;28;20038;-59
2022/12/13 00:43:40;;;;;;;14.10;8.63;;;;;;;;;;4990496;28;20038;-58
2022/12/13 00:46:17;;;;;;;17.25;8.60;;;;;;;;;;4990546;28;20046;-58
2022/12/13 00:48:49;;;;;;;16.05;9.10;;;;;;;;;;4990434;28;20117;-58
2022/12/13 00:51:16;;;;;;;16.92;8.90;;;;;;;;;;4990466;28;20057;-58
2022/12/13 00:53:44;;;;;;;15.35;8.88;;;;;;;;;;4990553;28;20038;-58
2022/12/13 00:56:13;;;;;;;14.90;8.63;;;;;;;;;;4990407;28;20046;-58
2022/12/13 00:58:41;;;;;;;15.50;9.45;;;;;;;;;;4990379;28;20038;-58
2022/12/13 01:01:14;;;;;;;15.73;8.88;;;;;;;;;;4990536;28;20058;-58
2022/12/13 01:03:42;;;;;;;17.10;9.50;;;;;;;;;;4990324;28;20400;-58
2022/12/13 01:06:10;;;;;;;16.77;9.30;;;;;;;;;;4990505;28;20396;-58
2022/12/13 01:08:43;;;;;;;16.38;9.25;;;;;;;;;;4990199;28;20042;-58
2022/12/13 01:11:11;;;;;;;15.35;8.95;;;;;;;;;;4990415;28;20065;-58
2022/12/13 01:13:39;;;;;;;15.75;8.40;;;;;;;;;;4990297;28;20476;-58
2022/12/13 01:16:08;;;;;;;14.82;9.27;;;;;;;;;;4990458;28;20042;-58
2022/12/13 01:18:36;;;;;;;14.98;8.32;;;;;;;;;;4990174;28;20052;-59
2022/12/13 01:21:05;;;;;;;18.73;9.77;;;;;;;;;;4990195;28;20046;-58
2022/12/13 01:23:33;;;;;;;16.65;8.85;;;;;;;;;;4990250;28;20096;-58
2022/12/13 01:26:08;;;;;;;17.05;8.75;;;;;;;;;;4990161;28;20621;-58
2022/12/13 01:28:35;;;;;;;17.83;10.10;;;;;;;;;;4990229;28;20113;-58
2022/12/13 01:31:04;;;;;;;17.88;9.73;;;;;;;;;;4993465;28;20046;-59
2022/12/13 01:33:32;;;;;;;17.50;9.50;;;;;;;;;;4993387;28;20030;-59
2022/12/13 01:36:01;;;;;;;18.23;9.43;;;;;;;;;;4992210;28;20470;-58
2022/12/13 01:38:29;;;;;;;14.38;8.80;;;;;;;;;;4992037;28;20137;-59
2022/12/13 01:40:57;;;;;;;18.67;9.13;;;;;;;;;;4993304;28;20121;-59
2022/12/13 01:43:41;;;;;;;15.85;8.90;;;;;;;;;;4993197;28;20042;-59
2022/12/13 01:46:10;;;;;;;17.35;9.95;;;;;;;;;;4991984;28;20478;-59
2022/12/13 01:48:44;;;;;;;16.52;9.30;;;;;;;;;;4993034;28;20049;-59
2022/12/13 01:51:12;;;;;;;17.00;9.57;;;;;;;;;;4992889;28;20506;-59
2022/12/13 01:53:41;;;;;;;18.25;9.88;;;;;;;;;;4993232;28;20042;-59
2022/12/13 01:56:17;;;;;;;17.70;9.65;;;;;;;;;;4993318;28;20404;-59
2022/12/13 01:58:44;;;;;;;;;;;;;;;;;;4993538;28;20049;-58
2022/12/13 02:01:12;;;;;;;16.55;9.07;;;;;;;;;;4992978;28;19967;-59
2022/12/13 02:03:39;;;;;;;14.57;8.93;;;;;;;;;;4993052;28;20510;-59
2022/12/13 02:06:07;;;;;;;17.30;9.63;;;;;;;;;;4993083;28;20552;-59
2022/12/13 02:08:36;;;;;;;14.95;8.60;;;;;;;;;;4991700;28;20053;-59
2022/12/13 02:11:04;;;;;;;15.93;9.00;;;;;;;;;;4992987;28;20072;-59
2022/12/13 02:13:34;;;;;;;16.75;9.48;;;;;;;;;;4992928;28;20042;-59
2022/12/13 02:16:17;;;;;;;16.98;9.75;;;;;;;;;;4991677;28;20138;-59
2022/12/13 02:18:58;;;;;;;17.23;9.98;;;;;;;;;;4992740;28;20046;-59
2022/12/13 02:21:29;;;;;;;19.00;10.05;;;;;;;;;;4992769;28;20109;-59
2022/12/13 02:23:57;;;;;;;17.85;9.57;;;;;;;;;;4993098;28;20084;-59
2022/12/13 02:26:47;;;;;;;18.27;10.07;;;;;;;;;;4992485;28;20051;-59
2022/12/13 02:29:34;;;;;;;17.80;9.23;;;;;;;;;;4997065;28;20069;-58
2022/12/13 02:32:08;;;;;;;17.30;9.20;;;;;;;;;;4992616;28;20042;-59
2022/12/13 02:34:54;;;;;;;18.17;10.30;;;;;;;;;;4992525;28;20047;-58
2022/12/13 02:37:27;;;;;;;17.63;9.52;;;;;;;;;;4992533;28;20046;-59
2022/12/13 02:39:54;;;;;;;18.13;9.70;;;;;;;;;;4992169;28;20052;-59
2022/12/13 02:42:32;;;;;;;16.80;9.07;;;;;;;;;;4991360;28;20038;-59
2022/12/13 02:45:07;;;;;;;17.60;9.73;;;;;;;;;;4992403;28;20720;-59
2022/12/13 02:47:37;;;;;;;17.48;9.40;;;;;;;;;;4992348;28;20458;-59
2022/12/13 02:50:06;;;;;;;19.90;10.75;;;;;;;;;;4992234;28;20499;-58
2022/12/13 02:52:34;;;;;;;18.90;10.13;;;;;;;;;;4992563;28;20140;-59
2022/12/13 02:55:06;;;;;;;16.48;9.00;;;;;;;;;;4992211;28;20286;-59
2022/12/13 02:57:37;;;;;;;16.45;9.32;;;;;;;;;;4992169;28;20052;-59
2022/12/13 03:00:16;;;;;;;16.27;9.55;;;;;;;;;;4991890;28;20089;-59
2022/12/13 03:02:43;;;;;;;18.90;10.40;;;;;;;;;;4992133;28;20091;-59
2022/12/13 03:08:10;;;;;;;18.73;10.05;;;;;;;;;;4992010;28;20038;-59
2022/12/13 03:10:50;;;;;;;20.25;10.73;;;;;;;;;;4991876;28;20396;-59
2022/12/13 03:13:38;;;;;;;16.05;9.52;;;;;;;;;;4992051;28;20038;-58
2022/12/13 03:16:13;;;;;;;17.10;9.60;;;;;;;;;;4991942;28;20043;-58
2022/12/13 03:18:50;;;;;;;17.27;10.27;;;;;;;;;;4991933;28;20043;-58
2022/12/13 03:21:17;;;;;;;18.55;9.48;;;;;;;;;;4991507;28;20039;-58
2022/12/13 03:23:46;;;;;;;16.98;9.57;;;;;;;;;;4991966;28;20049;-58
2022/12/13 03:26:16;;;;;;;19.33;9.65;;;;;;;;;;4991892;28;20469;-58
2022/12/13 03:28:44;;;;;;;17.08;10.00;;;;;;;;;;4991773;28;20125;-58
2022/12/13 03:31:11;;;;;;;17.45;9.23;;;;;;;;;;4991483;28;20042;-59
2022/12/13 03:33:39;;;;;;;16.48;9.20;;;;;;;;;;4992307;28;20412;-58
2022/12/13 03:36:07;;;;;;;18.67;10.02;;;;;;;;;;4991533;28;20042;-58
2022/12/13 03:38:34;;;;;;;16.05;9.10;;;;;;;;;;4991651;28;20038;-59
2022/12/13 03:41:03;;;;;;;17.77;9.40;;;;;;;;;;4991505;28;20074;-59
2022/12/13 03:43:31;;;;;;;16.83;8.90;;;;;;;;;;4991557;28;20039;-59
2022/12/13 03:46:00;;;;;;;17.95;9.70;;;;;;;;;;5075002;28;20119;-59
2022/12/13 03:48:27;;;;;;;17.38;9.40;;;;;;;;;;5093027;28;20070;-59
2022/12/13 03:50:56;;;;;;;15.60;9.55;;;;;;;;;;5093824;28;20043;-58
2022/12/13 03:53:24;;;;;;;17.58;9.88;;;;;;;;;;5093324;28;20427;-59
2022/12/13 03:56:00;;;;;;;19.55;9.27;;;;;;;;;;5093804;28;20040;-59
2022/12/13 03:58:28;;;;;;;17.10;9.63;;;;;;;;;;5093625;28;20043;-59
2022/12/13 04:01:03;;;;;;;15.80;8.65;;;;;;;;;;5093859;28;20067;-59
2022/12/13 04:03:31;;;;;;;15.65;8.75;;;;;;;;;;5093513;28;20114;-59
2022/12/13 04:05:58;;;;;;;17.65;9.55;;;;;;;;;;5093548;28;20036;-58
2022/12/13 04:08:26;;;;;;;18.48;9.80;;;;;;;;;;5093454;28;20035;-58
2022/12/13 04:10:53;;;;;;;17.77;9.75;;;;;;;;;;5093312;28;20432;-58
2022/12/13 04:13:33;;;;;;;17.65;9.32;;;;;;;;;;5093463;28;20149;-58
2022/12/13 04:16:01;;;;;;;18.92;9.20;;;;;;;;;;5093457;28;20432;-58
2022/12/13 04:18:29;;;;;;;16.70;9.50;;;;;;;;;;5093281;28;20040;-59
2022/12/13 04:20:57;;;;;;;16.80;8.70;;;;;;;;;;5093047;28;20556;-58
2022/12/13 04:23:24;;;;;;;20.20;11.23;;;;;;;;;;5093357;28;20036;-59
2022/12/13 04:25:51;;;;;;;19.08;10.50;;;;;;;;;;5093106;28;20058;-59
2022/12/13 04:28:19;;;;;;;17.73;10.25;;;;;;;;;;5092929;28;20036;-59
2022/12/13 04:30:52;;;;;;;15.45;8.98;;;;;;;;;;5093016;28;20036;-59
2022/12/13 04:33:23;;;;;;;17.10;9.40;;;;;;;;;;5093025;28;20037;-58
2022/12/13 04:35:51;;;;;;;19.80;11.18;;;;;;;;;;5093036;28;20043;-59
2022/12/13 04:38:19;;;;;;;19.33;9.88;;;;;;;;;;5091662;28;20036;-59
2022/12/13 04:40:46;;;;;;;16.80;9.45;;;;;;;;;;5092770;28;20452;-59
2022/12/13 04:43:14;;;;;;;18.13;10.20;;;;;;;;;;5092805;28;20040;-58
2022/12/13 04:45:41;;;;;;;17.55;9.63;;;;;;;;;;5093045;28;20089;-59
2022/12/13 04:48:09;;;;;;;21.88;10.50;;;;;;;;;;5092749;28;20066;-59
2022/12/13 04:50:36;;;;;;;17.27;10.10;;;;;;;;;;5092743;28;20122;-59
2022/12/13 04:53:04;;;;;;;18.50;10.35;;;;;;;;;;5092760;28;20060;-60
2022/12/13 04:55:31;;;;;;;17.42;9.80;;;;;;;;;;5092941;28;20097;-60
2022/12/13 04:57:59;;;;;;;19.30;10.32;;;;;;;;;;5040839;28;20031;-60
2022/12/13 05:00:26;;;;;;;19.20;11.05;;;;;;;;;;4989828;28;20043;-60
2022/12/13 05:02:54;;;;;;;18.40;10.35;;;;;;;;;;4990644;28;20096;-60
2022/12/13 05:05:22;;;;;;;16.70;10.05;;;;;;;;;;4989239;28;20100;-60
2022/12/13 05:07:49;;;;;;;19.40;10.32;;;;;;;;;;4990301;28;20042;-61
2022/12/13 05:10:17;;;;;;;17.60;9.88;;;;;;;;;;4990268;28;20034;-60
2022/12/13 05:13:04;;;;;;;21.65;11.50;;;;;;;;;;4989435;28;20046;-61
2022/12/13 05:15:31;;;;;;;20.35;10.85;;;;;;;;;;4990068;28;20549;-61
2022/12/13 05:18:06;;;;;;;19.45;10.32;;;;;;;;;;4990162;28;20074;-60
2022/12/13 05:20:37;;;;;;;20.05;10.70;;;;;;;;;;4989864;28;20042;-60
2022/12/13 05:23:04;;;;;;;17.88;9.93;;;;;;;;;;4989754;28;20490;-58
2022/12/13 05:25:33;;;;;;;19.70;10.93;;;;;;;;;;4990093;28;20058;-59
2022/12/13 05:28:00;;;;;;;19.80;10.45;;;;;;;;;;4988829;28;20092;-59
2022/12/13 05:30:48;;;;;;;18.75;10.88;;;;;;;;;;4989767;28;20080;-59
2022/12/13 05:33:15;;;;;;;20.48;10.88;;;;;;;;;;4990093;28;20038;-59
2022/12/13 05:35:45;;;;;;;18.60;10.82;;;;;;;;;;4989838;28;20402;-59
2022/12/13 05:38:13;;;;;;;19.73;10.43;;;;;;;;;;4988531;28;20527;-58
2022/12/13 05:40:41;;;;;;;21.98;10.88;;;;;;;;;;4989794;28;20046;-59
2022/12/13 05:43:10;;;;;;;19.00;10.40;;;;;;;;;;4989836;28;20046;-59
2022/12/13 05:45:49;;;;;;;23.05;10.85;;;;;;;;;;4989815;28;20404;-59
2022/12/13 05:48:17;;;;;;;17.60;10.25;;;;;;;;;;4989785;28;20039;-59
2022/12/13 05:50:52;;;;;;;20.92;11.50;;;;;;;;;;4989596;28;20104;-59
2022/12/13 05:53:38;;;;;;;20.67;11.95;;;;;;;;;;4989686;28;20388;-59
2022/12/13 05:56:05;;;;;;;17.40;9.70;;;;;;;;;;4989824;28;20038;-59
2022/12/13 05:58:33;;;;;;;21.25;11.73;;;;;;;;;;4989866;28;20038;-59
2022/12/13 06:01:09;;;;;;;20.17;11.38;;;;;;;;;;4990016;28;20047;-59
2022/12/13 06:03:36;;;;;;;19.52;10.95;;;;;;;;;;4998961;28;20041;-59
2022/12/13 06:06:05;;;;;;;23.20;12.10;;;;;;;;;;5004134;28;20095;-59
2022/12/13 06:08:33;;;;;;;20.60;11.20;;;;;;;;;;5009614;28;20377;-59
2022/12/13 06:11:01;;;;;;;18.88;11.15;;;;;;;;;;5009355;28;20099;-62
2022/12/13 06:13:42;;;;;;;17.33;11.48;;;;;;;;;;5009069;28;20045;-59
2022/12/13 06:16:12;;;;;;;19.95;10.95;;;;;;;;;;5010979;28;20372;-59
2022/12/13 06:18:51;;;;;;;21.27;10.85;;;;;;;;;;5012410;28;20038;-59
2022/12/13 06:21:25;;;;;;;21.23;11.13;;;;;;;;;;5012286;28;20042;-59
2022/12/13 06:23:53;;;;;;;23.70;11.50;;;;;;;;;;5012421;28;20087;-60
2022/12/13 06:26:20;;;;;;;23.17;12.45;;;;;;;;;;5011676;28;20081;-60
2022/12/13 06:28:48;;;;;;;20.77;11.25;;;;;;;;;;5006511;28;20038;-59
2022/12/13 06:31:15;;;;;;;21.73;12.40;;;;;;;;;;5012274;28;20111;-59
2022/12/13 06:33:43;;;;;;;22.55;11.77;;;;;;;;;;5011233;28;20046;-59
2022/12/13 06:36:10;;;;;;;23.38;11.70;;;;;;;;;;5011980;28;20046;-59
2022/12/13 06:38:38;;;;;;;23.23;11.80;;;;;;;;;;5010622;28;20050;-59
2022/12/13 06:41:14;;;;;;;22.77;12.05;;;;;;;;;;5011859;28;20049;-59
2022/12/13 06:43:42;;;;;;;24.17;12.90;;;;;;;;;;5012104;28;20049;-59
2022/12/13 06:46:10;;;;;;;23.45;12.68;;;;;;;;;;5011974;28;20034;-59
2022/12/13 06:48:39;;;;;;;22.77;12.80;;;;;;;;;;5011982;28;20049;-60
2022/12/13 06:51:07;;;;;;;22.88;11.95;;;;;;;;;;5011910;28;20042;-59
2022/12/13 06:53:36;;;;;;;25.40;12.45;;;;;;;;;;5010779;28;20037;-59
2022/12/13 06:56:08;;;;;;;22.65;12.93;;;;;;;;;;5012085;28;20046;-59
2022/12/13 06:58:36;;;;;;;24.90;12.90;;;;;;;;;;5011701;28;20038;-59
2022/12/13 07:01:08;;;;;;;23.45;13.55;;;;;;;;;;5011979;28;20050;-59
2022/12/13 07:03:41;;;;;;;23.65;13.48;;;;;;;;;;5011411;28;20038;-59
2022/12/13 07:06:13;;;;;;;23.35;13.73;;;;;;;;;;5011660;28;20034;-59
2022/12/13 07:08:41;;;;;;;26.55;13.85;;;;;;;;;;5012060;28;20042;-59
2022/12/13 07:11:15;;;;;;;25.30;14.77;;;;;;;;;;5011736;28;20065;-59
2022/12/13 07:13:43;;;;;;;25.98;13.48;;;;;;;;;;5011680;28;20050;-59
2022/12/13 07:16:11;;;;;;;26.40;13.65;;;;;;;;;;5011617;28;20034;-59
2022/12/13 07:18:39;;;;;;;26.05;15.25;;;;;;;;;;5010317;28;20395;-59
2022/12/13 07:21:07;;;;;;;23.95;13.77;;;;;;;;;;5011542;28;20308;-59
2022/12/13 07:23:49;;;;;;;25.23;14.18;;;;;;;;;;5011558;28;20038;-59
2022/12/13 07:26:22;;;;;;;29.15;14.43;;;;;;;;;;5010922;28;20495;-59
2022/12/13 07:28:49;;;;;;;26.95;14.60;;;;;;;;;;5010940;28;20042;-59
2022/12/13 07:31:22;;;;;;;26.67;14.98;;;;;;;;;;5011402;28;20095;-59
2022/12/13 07:33:51;;;;;;;26.70;14.55;;;;;;;;;;5011350;28;20053;-59
2022/12/13 07:36:19;;;;;;;28.33;15.25;;;;;;;;;;5011496;28;20041;-60
2022/12/13 07:38:53;;;;;;;27.90;15.50;;;;;;;;;;5011513;28;20046;-59
2022/12/13 07:41:22;;;;;;;27.30;15.43;;;;;;;;;;5011217;28;20045;-59
2022/12/13 07:43:54;;;;;;;25.55;14.52;;;;;;;;;;5011461;28;20038;-59
2022/12/13 07:46:22;;;;;;;24.80;13.55;;;;;;;;;;5011198;28;20459;-60
2022/12/13 07:49:03;;;;;;;24.67;13.82;;;;;;;;;;5011164;28;20042;-59
2022/12/13 07:51:33;;;;;;;25.77;15.13;;;;;;;;;;5011067;28;20046;-59
2022/12/13 07:54:01;;;;;;;24.10;14.20;;;;;;;;;;5010956;28;20052;-59
2022/12/13 07:56:33;;;;;;;23.42;13.48;;;;;;;;;;5011012;28;20427;-60
2022/12/13 07:59:01;;;;;;;24.70;14.00;;;;;;;;;;5010957;28;20099;-59
2022/12/13 08:01:33;;;;;;;24.83;13.32;;;;;;;;;;5010749;28;20055;-59
2022/12/13 08:04:01;;;;;;;23.55;13.70;;;;;;;;;;5010873;28;20105;-59
2022/12/13 08:06:29;;;;;;;26.00;13.73;;;;;;;;;;5010770;28;20224;-59
2022/12/13 08:08:57;;;;;;;24.50;14.32;;;;;;;;;;5010873;28;20128;-60
2022/12/13 08:11:24;;;;;;;22.13;14.35;;;;;;;;;;5010585;28;20487;-60
2022/12/13 08:13:55;;;;;;;27.48;14.20;;;;;;;;;;5010706;28;20033;-59
2022/12/13 08:16:22;;;;;;;26.50;14.57;;;;;;;;;;5010884;28;20042;-60
2022/12/13 08:18:54;;;;;;;25.23;14.98;;;;;;;;;;5010788;28;20038;-60
2022/12/13 08:21:37;;;;;;;25.23;14.25;;;;;;;;;;5010624;28;20042;-60
2022/12/13 08:24:28;;;;;;;26.30;14.23;;;;;;;;;;5010525;28;20411;-60
2022/12/13 08:26:59;;;;;;;24.90;14.32;;;;;;;;;;5010578;28;20050;-60
2022/12/13 08:29:28;;;;;;;23.42;14.43;;;;;;;;;;5010364;28;20042;-60
2022/12/13 08:32:02;;;;;;;23.05;14.13;;;;;;;;;;5010353;28;20337;-60
2022/12/13 08:34:30;;;;;;;24.20;14.13;;;;;;;;;;5010284;28;20069;-60
2022/12/13 08:36:59;;;;;;;25.05;14.93;;;;;;;;;;5010174;28;20042;-60
2022/12/13 08:39:30;;;;;;;24.40;15.00;;;;;;;;;;5010263;28;20380;-60
2022/12/13 08:42:02;;;;;;;23.20;13.88;;;;;;;;;;5010244;28;20542;-60
2022/12/13 08:44:44;;;;;;;22.50;14.02;;;;;;;;;;5010748;28;20450;-60
2022/12/13 08:47:12;;;;;;;22.45;13.75;;;;;;;;;;5010326;28;20503;-60
2022/12/13 08:49:55;;;;;;;25.42;14.40;;;;;;;;;;5009260;28;20061;-60
2022/12/13 08:52:34;;;;;;;26.83;14.20;;;;;;;;;;5009926;28;20060;-60
2022/12/13 08:55:07;;;;;;;23.65;13.60;;;;;;;;;;5008607;28;20415;-60
2022/12/13 08:57:36;;;;;;;25.45;14.45;;;;;;;;;;5010054;28;20095;-60
2022/12/13 09:00:07;;;;;;;22.52;14.07;;;;;;;;;;5009945;28;20129;-60
2022/12/13 09:02:34;;;;;;;24.75;14.20;;;;;;;;;;5009909;28;20484;-60
2022/12/13 09:05:06;;;;;;;25.67;15.05;;;;;;;;;;5009878;28;20046;-60
2022/12/13 09:07:34;;;;;;;23.40;14.13;;;;;;;;;;5010017;28;20458;-60
2022/12/13 09:10:03;;;;;;;27.85;14.27;;;;;;;;;;5009935;28;20038;-60
2022/12/13 09:12:51;;;;;;;22.30;12.85;;;;;;;;;;5009828;28;20050;-60
2022/12/13 09:15:28;;;;;;;26.75;14.60;;;;;;;;;;5009805;28;20069;-60
2022/12/13 09:18:02;;;;;;;23.13;13.77;;;;;;;;;;5009745;28;20050;-60
2022/12/13 09:20:32;;;;;;;24.65;14.02;;;;;;;;;;5009942;28;20084;-60
2022/12/13 09:23:07;;;;;;;25.33;13.55;;;;;;;;;;5009693;28;20129;-60
2022/12/13 09:25:57;;;;;;;25.05;14.52;;;;;;;;;;5009712;28;20049;-60
2022/12/13 09:28:33;;;;;;;31.35;14.85;;;;;;;;;;5009728;28;20042;-60
2022/12/13 09:31:02;;;;;;;23.73;13.73;;;;;;;;;;5009589;28;20129;-60
2022/12/13 09:33:29;;;;;;;21.58;12.93;;;;;;;;;;5009618;28;20045;-60
2022/12/13 09:35:57;;;;;;;26.33;14.60;;;;;;;;;;5009859;28;20132;-60
2022/12/13 09:38:28;;;;;;;26.00;14.50;;;;;;;;;;5009621;28;20095;-61
2022/12/13 09:40:58;;;;;;;23.60;14.50;;;;;;;;;;5009365;28;20099;-60
2022/12/13 09:43:29;;;;;;;26.70;16.02;;;;;;;;;;5009404;28;20048;-60
2022/12/13 09:46:13;;;;;;;23.10;14.13;;;;;;;;;;5009498;28;20121;-60
2022/12/13 09:48:51;;;;;;;21.08;14.07;;;;;;;;;;5009390;28;20068;-60
2022/12/13 09:51:20;;;;;;;21.52;13.85;;;;;;;;;;5011934;28;20372;-60
2022/12/13 09:53:56;;;;;;;22.70;14.65;;;;;;;;;;5012694;28;20042;-60
2022/12/13 09:56:24;;;;;;;25.58;14.95;;;;;;;;;;5012878;28;20099;-60
2022/12/13 09:58:53;;;;;;;27.40;14.95;;;;;;;;;;5012623;28;20046;-60
2022/12/13 10:01:20;;;;;;;25.23;14.95;;;;;;;;;;5012501;28;20038;-59
2022/12/13 10:03:51;;;;;;;25.15;15.18;;;;;;;;;;5012276;28;20069;-59
2022/12/13 10:06:22;;;;;;;19.98;12.68;;;;;;;;;;5012388;28;20560;-59
2022/12/13 10:08:54;;;;;;;24.83;14.30;;;;;;;;;;5012610;28;20125;-59
2022/12/13 10:11:25;;;;;;;20.20;12.23;;;;;;;;;;5012627;28;20038;-60
2022/12/13 10:14:02;;;;;;;23.25;14.23;;;;;;;;;;5012576;28;20445;-60
2022/12/13 10:16:35;;;;;;;24.83;15.35;;;;;;;;;;5012462;28;20042;-59
2022/12/13 10:19:18;;;;;;;20.20;13.50;;;;;;;;;;5012390;28;20046;-59
2022/12/13 10:21:57;;;;;;;20.33;13.07;;;;;;;;;;5012461;28;20120;-59
2022/12/13 10:24:48;;;;;;;18.33;11.70;;;;;;;;;;5011318;28;20126;-59
2022/12/13 10:27:17;;;;;;;23.35;13.32;;;;;;;;;;5015380;28;20072;-59
2022/12/13 10:29:58;;;;;;;21.60;13.50;;;;;;;;;;5012282;28;20073;-59
2022/12/13 10:32:26;;;;;;;21.50;14.10;;;;;;;;;;5012465;28;20041;-60
2022/12/13 10:34:56;;;;;;;23.92;14.80;;;;;;;;;;5012212;28;20046;-60
2022/12/13 10:37:28;;;;;;;21.73;13.65;;;;;;;;;;5012209;28;20495;-60
2022/12/13 10:39:56;;;;;;;19.70;13.18;;;;;;;;;;5012140;28;20049;-60
2022/12/13 10:42:23;;;;;;;22.38;13.50;;;;;;;;;;5012099;28;20075;-60
2022/12/13 10:45:09;;;;;;;24.85;14.18;;;;;;;;;;5012392;28;20402;-59
2022/12/13 10:47:36;;;;;;;23.77;13.95;;;;;;;;;;5012220;28;20042;-59
2022/12/13 10:50:04;;;;;;;22.80;14.02;;;;;;;;;;5011968;28;20061;-59
2022/12/13 10:52:33;;;;;;;21.40;13.77;;;;;;;;;;5011975;28;20045;-59
2022/12/13 10:55:28;;;;;;;25.02;14.77;;;;;;;;;;5010890;28;20042;-59
2022/12/13 10:58:08;;;;;;;26.17;14.43;;;;;;;;;;5011933;28;20046;-59
2022/12/13 11:00:38;;;;;;;22.38;14.00;;;;;;;;;;5011831;28;20642;-59
2022/12/13 11:03:06;;;;;;;27.95;15.60;;;;;;;;;;5010603;28;20045;-60
2022/12/13 11:05:36;;;;;;;23.77;14.52;;;;;;;;;;5012064;28;20364;-59
2022/12/13 11:08:16;;;;;;;23.17;13.55;;;;;;;;;;5011843;28;20272;-59
2022/12/13 11:10:44;;;;;;;22.38;14.20;;;;;;;;;;5011665;28;20049;-60
2022/12/13 11:13:23;;;;;;;25.58;14.45;;;;;;;;;;5011526;28;20487;-60
2022/12/13 11:15:54;;;;;;;22.80;13.43;;;;;;;;;;5010271;28;20518;-60
2022/12/13 11:18:23;;;;;;;20.92;13.45;;;;;;;;;;5011268;28;20068;-60
2022/12/13 11:20:56;;;;;;;26.13;15.07;;;;;;;;;;5011384;28;20388;-60
2022/12/13 11:23:33;;;;;;;22.88;13.98;;;;;;;;;;5011507;28;20066;-60
2022/12/13 11:26:05;;;;;;;25.65;13.52;;;;;;;;;;5011172;28;20510;-60
2022/12/13 11:28:41;;;;;;;22.95;13.90;;;;;;;;;;5011580;28;20433;-60
2022/12/13 11:31:13;;;;;;;24.42;13.55;;;;;;;;;;5011291;28;20049;-60
2022/12/13 11:33:47;;;;;;;21.92;13.63;;;;;;;;;;5011215;28;20095;-59
2022/12/13 11:36:41;;;;;;;20.17;12.27;;;;;;;;;;5011409;28;20491;-60
2022/12/13 11:39:13;;;;;;;21.58;13.70;;;;;;;;;;5018994;28;20648;-60
2022/12/13 11:41:54;;;;;;;21.73;12.52;;;;;;;;;;5010864;28;20551;-60
2022/12/13 11:44:26;;;;;;;21.15;12.48;;;;;;;;;;5011234;28;20107;-60
2022/12/13 11:47:00;;;;;;;21.35;12.68;;;;;;;;;;5011151;28;20455;-60
2022/12/13 11:49:33;;;;;;;22.30;13.30;;;;;;;;;;5011250;28;20066;-60
2022/12/13 11:52:20;;;;;;;22.83;12.85;;;;;;;;;;5011163;28;20637;-60
2022/12/13 11:54:59;;;;;;;21.13;13.73;;;;;;;;;;5009928;28;20117;-60
2022/12/13 11:57:26;;;;;;;23.20;14.13;;;;;;;;;;5010906;28;20049;-60
2022/12/13 11:59:57;;;;;;;24.10;14.90;;;;;;;;;;5010883;28;20454;-60
2022/12/13 12:02:40;;;;;;;21.45;13.50;;;;;;;;;;5009642;28;20137;-60
2022/12/13 12:05:20;;;;;;;24.73;14.55;;;;;;;;;;5010823;28;20034;-59
2022/12/13 12:07:50;;;;;;;24.77;14.85;;;;;;;;;;5010643;28;20040;-60
2022/12/13 12:10:43;;;;;;;26.67;15.65;;;;;;;;;;5010816;28;20045;-59
2022/12/13 12:13:16;;;;;;;29.80;16.17;;;;;;;;;;5010353;28;20464;-60
2022/12/13 12:16:04;;;;;;;29.77;16.85;;;;;;;;;;5010662;28;20115;-59
2022/12/13 12:18:33;;;;;;;26.55;15.70;;;;;;;;;;5010434;28;20041;-59
2022/12/13 12:21:04;;;;;;;24.65;14.50;;;;;;;;;;4993132;28;20117;-60
2022/12/13 12:23:40;;;;;;;25.05;14.32;;;;;;;;;;5010624;28;20042;-60
2022/12/13 12:26:17;;;;;;;23.33;14.98;;;;;;;;;;5010011;28;20050;-60
2022/12/13 12:29:03;;;;;;;24.85;14.95;;;;;;;;;;5010498;28;20046;-60
2022/12/13 12:31:41;;;;;;;24.00;14.73;;;;;;;;;;5010663;28;20053;-60
2022/12/13 12:34:23;;;;;;;25.75;15.00;;;;;;;;;;5010396;28;20438;-59
2022/12/13 12:37:14;;;;;;;19.90;13.00;;;;;;;;;;5010305;28;20049;-60
2022/12/13 12:39:42;;;;;;;23.73;14.35;;;;;;;;;;5013283;28;20054;-59
2022/12/13 12:42:09;;;;;;;22.67;13.98;;;;;;;;;;5009093;28;20046;-59
2022/12/13 12:44:52;;;;;;;21.05;13.02;;;;;;;;;;5010422;28;20096;-59
2022/12/13 12:47:39;;;;;;;22.70;13.82;;;;;;;;;;5010369;28;20499;-59
2022/12/13 12:50:50;;;;;;;28.48;14.43;;;;;;;;;;5010080;28;20046;-59
2022/12/13 12:53:36;;;;;;;22.80;14.10;;;;;;;;;;5018937;28;20129;-60
2022/12/13 12:56:03;;;;;;;;;;;;;;;;;;5010575;28;20045;-59
2022/12/13 12:58:40;;;;;;;22.88;13.82;;;;;;;;;;5009971;28;19922;-59
2022/12/13 13:01:26;;;;;;;20.88;13.15;;;;;;;;;;5009883;28;20069;-59
2022/12/13 13:03:55;;;;;;;22.98;13.68;;;;;;;;;;5010037;28;20038;-59
2022/12/13 13:06:46;;;;;;;21.17;12.88;;;;;;;;;;5010246;28;20527;-59
2022/12/13 13:09:17;;;;;;;22.33;12.27;;;;;;;;;;5010005;28;20487;-59
2022/12/13 13:11:51;;;;;;;20.40;11.95;;;;;;;;;;5010116;28;20134;-59
2022/12/13 13:14:24;;;;;;;25.98;12.70;;;;;;;;;;5009850;28;20048;-59
2022/12/13 13:16:51;;;;;;;20.38;12.57;;;;;;;;;;5009908;28;20046;-59
2022/12/13 13:19:19;;;;;;;21.55;13.25;;;;;;;;;;5009882;28;20057;-60
2022/12/13 13:21:56;;;;;;;20.75;11.57;;;;;;;;;;5009732;28;20057;-59
2022/12/13 13:24:29;;;;;;;19.23;12.52;;;;;;;;;;5009715;28;20117;-60
2022/12/13 13:27:19;;;;;;;20.83;12.48;;;;;;;;;;5013029;28;20058;-60
2022/12/13 13:29:47;;;;;;;23.30;13.20;;;;;;;;;;5013472;28;20041;-60
2022/12/13 13:32:17;;;;;;;20.98;12.80;;;;;;;;;;5013458;28;20107;-60
2022/12/13 13:35:18;;;;;;;19.20;11.68;;;;;;;;;;5013208;28;20034;-60
2022/12/13 13:37:47;;;;;;;20.98;12.48;;;;;;;;;;5013168;28;20073;-60
2022/12/13 13:40:30;;;;;;;20.08;12.70;;;;;;;;;;5013331;28;20519;-60
2022/12/13 13:43:10;;;;;;;20.20;12.43;;;;;;;;;;5012924;28;20056;-60
2022/12/13 13:45:56;;;;;;;19.17;11.48;;;;;;;;;;5012896;28;20099;-60
2022/12/13 13:48:36;;;;;;;20.75;11.73;;;;;;;;;;5012915;28;20076;-60
2022/12/13 13:51:21;;;;;;;21.05;12.68;;;;;;;;;;5013034;28;20077;-60
2022/12/13 13:53:49;;;;;;;;;;;;;;;;;;5013485;28;20056;-60
2022/12/13 13:56:27;;;;;;;20.08;12.23;;;;;;;;;;5012752;28;19921;-60
2022/12/13 13:59:15;;;;;;;19.45;11.57;;;;;;;;;;5012682;28;20107;-60
2022/12/13 14:01:54;;;;;;;20.33;12.68;;;;;;;;;;5022611;28;20392;-60
2022/12/13 14:04:33;;;;;;;21.27;12.30;;;;;;;;;;5012661;28;20555;-60
2022/12/13 14:07:19;;;;;;;23.95;14.02;;;;;;;;;;5013004;28;20038;-60
2022/12/13 14:10:11;;;;;;;20.30;12.32;;;;;;;;;;5012412;28;20049;-60
2022/12/13 14:12:57;;;;;;;22.52;13.20;;;;;;;;;;5011659;28;20049;-60
2022/12/13 14:15:43;;;;;;;21.73;12.93;;;;;;;;;;5011931;28;20137;-61
2022/12/13 14:18:31;;;;;;;29.08;13.85;;;;;;;;;;5011900;28;20422;-61
2022/12/13 14:21:20;;;;;;;24.02;14.48;;;;;;;;;;4993757;28;20146;-60
2022/12/13 14:24:13;;;;;;;23.67;14.48;;;;;;;;;;4993267;28;20051;-60
2022/12/13 14:26:59;;;;;;;24.10;15.23;;;;;;;;;;4992505;28;20104;-60
2022/12/13 14:29:32;;;;;;;28.33;16.60;;;;;;;;;;4997379;28;20099;-60
2022/12/13 14:32:00;;;;;;;31.25;17.88;;;;;;;;;;4992600;28;20046;-60
2022/12/13 14:34:30;;;;;;;31.98;18.90;;;;;;;;;;4992557;28;20034;-60
2022/12/13 14:37:01;;;;;;;30.27;17.63;;;;;;;;;;4992292;28;20050;-60
2022/12/13 14:39:30;;;;;;;31.67;17.95;;;;;;;;;;4992467;28;20046;-60
2022/12/13 14:41:59;;;;;;;29.38;17.42;;;;;;;;;;4995825;28;20050;-60
2022/12/13 14:44:32;;;;;;;28.00;16.50;;;;;;;;;;4991200;28;20473;-60
2022/12/13 14:47:04;;;;;;;24.60;15.00;;;;;;;;;;4992580;28;20419;-59
2022/12/13 14:49:34;;;;;;;26.85;16.92;;;;;;;;;;4992407;28;20068;-59
2022/12/13 14:52:08;;;;;;;26.13;16.13;;;;;;;;;;4992263;28;20050;-59
2022/12/13 14:54:45;;;;;;;29.10;16.10;;;;;;;;;;4992178;28;20066;-60
2022/12/13 14:57:15;;;;;;;24.55;14.48;;;;;;;;;;4992178;28;20488;-60